^^
Station Historical Data
Daily Summary for January 8, 2017 Units:  Metric    English   Both
« Previous Day
Next Day »
Daily Weekly Monthly Yearly Custom
  High: Low: Average:
Temperature: 36.5 °C 18.4 °C 25.6 °C
Dew Point: 10.5 °C -4.9 °C 7.6 °C
Humidity: 58% 7% 37%
Wind Speed: 32km/h 0km/h 15.8km/h
Wind Gust: 37km/h - -
Wind- - SSW
Pressure: 1010.4 hPa 1002.9 hPa -
Precipitation: 0 mm    
Historical Graphs
 
 
Tabular Data for January 8, 2017
Time Temperature Dew Point Pressure Wind Wind Speed Wind Gust Humidity Rainfall Rate (Hourly) solar Conditions
00:05 22.8 °C 8.5 °C 1010.4 hPa SSW 19.5 km/h 27.4 km/h 40% 0 mm 0.0 W/m2
00:10 22.7 °C 8.8 °C 1010 hPa South 20.9 km/h 27.4 km/h 41% 0 mm 0.0 W/m2
00:15 22.6 °C 9 °C 1010 hPa South 22.7 km/h 29 km/h 42% 0 mm 0.0 W/m2
00:20 22.5 °C 8.9 °C 1010 hPa SSW 17.7 km/h 25.7 km/h 42% 0 mm 0.0 W/m2
00:25 22.4 °C 9.2 °C 1010 hPa SSW 19.5 km/h 24.1 km/h 43% 0 mm 0.0 W/m2
00:30 22.3 °C 9.1 °C 1010 hPa SSW 22.7 km/h 24.1 km/h 43% 0 mm 0.0 W/m2
00:35 22.1 °C 9.3 °C 1010 hPa SSW 20.9 km/h 25.7 km/h 44% 0 mm 0.0 W/m2
00:40 22 °C 9.2 °C 1010 hPa SSW 20.9 km/h 20.9 km/h 44% 0 mm 0.0 W/m2
00:45 21.9 °C 9.4 °C 1010 hPa SSW 16.3 km/h 24.1 km/h 45% 0 mm 0.0 W/m2
00:50 21.8 °C 9.3 °C 1010 hPa SSW 16.3 km/h 22.5 km/h 45% 0 mm 0.0 W/m2
01:00 21.7 °C 9.6 °C 1009.7 hPa SSW 17.7 km/h 22.5 km/h 46% 0 mm 0.0 W/m2
01:05 21.6 °C 9.5 °C 1009.7 hPa SSW 22.7 km/h 22.7 km/h 46% 0 mm 0.0 W/m2
01:10 21.5 °C 9.4 °C 1009.7 hPa SSW 19.5 km/h 25.7 km/h 46% 0 mm 0.0 W/m2
01:15 21.4 °C 9.6 °C 1009.4 hPa SSW 14.3 km/h 24.1 km/h 47% 0 mm 0.0 W/m2
01:20 21.4 °C 9.6 °C 1009.4 hPa SSW 19.5 km/h 22.5 km/h 47% 0 mm 0.0 W/m2
01:25 21.3 °C 9.2 °C 1009.4 hPa SSW 17.7 km/h 20.9 km/h 46% 0 mm 0.0 W/m2
01:35 21.2 °C 9.4 °C 1009 hPa SSW 16.3 km/h 20.9 km/h 47% 0 mm 0.0 W/m2
01:40 21.1 °C 9.3 °C 1009 hPa SSW 16.3 km/h 22.5 km/h 47% 0 mm 0.0 W/m2
01:45 21.1 °C 9.3 °C 1009 hPa SSW 20.9 km/h 24.1 km/h 47% 0 mm 0.0 W/m2
01:55 21 °C 9.6 °C 1009 hPa SSW 19.5 km/h 25.7 km/h 48% 0 mm 0.0 W/m2
02:05 20.8 °C 9.4 °C 1009 hPa SSW 16.3 km/h 25.7 km/h 48% 0 mm 0.0 W/m2
02:10 20.8 °C 9.7 °C 1009 hPa SSW 25.9 km/h 29 km/h 49% 0 mm 0.0 W/m2
02:20 20.8 °C 9.7 °C 1009 hPa SSW 16.3 km/h 25.7 km/h 49% 0 mm 0.0 W/m2
02:30 20.6 °C 9.8 °C 1009 hPa South 11.1 km/h 22.5 km/h 50% 0 mm 0.0 W/m2
02:40 20.5 °C 9.7 °C 1009 hPa SSW 14.3 km/h 27.4 km/h 50% 0 mm 0.0 W/m2
02:50 20.4 °C 9.9 °C 1008.7 hPa SSW 19.5 km/h 22.5 km/h 51% 0 mm 0.0 W/m2
02:55 20.3 °C 9.8 °C 1008.7 hPa SSW 14.3 km/h 19.3 km/h 51% 0 mm 0.0 W/m2
03:00 20.1 °C 9.9 °C 1008.7 hPa SW 14.3 km/h 17.7 km/h 52% 0 mm 0.0 W/m2
03:06 20.1 °C 9.9 °C 1008.7 hPa SW 16.3 km/h 19.3 km/h 52% 0 mm 0.0 W/m2
03:16 20 °C 10.1 °C 1008.4 hPa SW 17.7 km/h 19.3 km/h 53% 0 mm 0.0 W/m2
03:21 20 °C 10.1 °C 1008.4 hPa SW 14.3 km/h 19.3 km/h 53% 0 mm 0.0 W/m2
03:31 19.9 °C 10 °C 1008.4 hPa SW 11.1 km/h 16.1 km/h 53% 0 mm 0.0 W/m2
03:36 19.9 °C 10 °C 1008.4 hPa SW 11.1 km/h 11.3 km/h 53% 0 mm 0.0 W/m2
03:41 19.7 °C 10.1 °C 1008.4 hPa SW 6.4 km/h 11.3 km/h 54% 0 mm 0.0 W/m2
03:46 19.6 °C 10.3 °C 1008.4 hPa SW 11.1 km/h 12.9 km/h 55% 0 mm 0.0 W/m2
03:51 19.5 °C 10.2 °C 1008.4 hPa SW 11.1 km/h 12.9 km/h 55% 0 mm 0.0 W/m2
03:56 19.4 °C 10.4 °C 1008.4 hPa SW 11.1 km/h 14.5 km/h 56% 0 mm 0.0 W/m2
04:01 19.3 °C 10.3 °C 1008.4 hPa SW 16.3 km/h 16.3 km/h 56% 0 mm 0.0 W/m2
04:06 19.3 °C 10.3 °C 1008.4 hPa SW 14.3 km/h 17.7 km/h 56% 0 mm 0.0 W/m2
04:21 19.2 °C 10.5 °C 1008.4 hPa SSW 14.3 km/h 17.7 km/h 57% 0 mm 0.0 W/m2
04:26 19.2 °C 10.5 °C 1008.4 hPa SSW 14.3 km/h 16.1 km/h 57% 0 mm 0.0 W/m2
04:31 19.2 °C 10.5 °C 1008 hPa SSW 14.3 km/h 17.7 km/h 57% 0 mm 0.0 W/m2
04:41 19.1 °C 10.4 °C 1008 hPa SSW 13 km/h 17.7 km/h 57% 0 mm 0.0 W/m2
05:42 18.6 °C 10.2 °C 1008.4 hPa SSW 7.9 km/h 11.3 km/h 58% 0 mm 0.0 W/m2
05:52 18.4 °C 10 °C 1008.4 hPa SSW 6.4 km/h 9.7 km/h 58% 0 mm 0.0 W/m2
05:57 18.4 °C 10 °C 1008.4 hPa SSW 6.4 km/h 9.7 km/h 58% 0 mm 0.0 W/m2
06:07 18.4 °C 10 °C 1008.4 hPa SSW 9.7 km/h 14.5 km/h 58% 0 mm 7.0 W/m2
06:48 19 °C 10.3 °C 1008.4 hPa SSW 7.9 km/h 12.9 km/h 57% 0 mm 74.0 W/m2
06:53 19.1 °C 10.4 °C 1008.7 hPa SSW 4.7 km/h 9.7 km/h 57% 0 mm 91.0 W/m2
06:58 19.3 °C 10.3 °C 1008.7 hPa SSW 6.4 km/h 9.7 km/h 56% 0 mm 111.0 W/m2
07:08 19.6 °C 10.3 °C 1008.4 hPa SSW 9.7 km/h 9.7 km/h 55% 0 mm 155.0 W/m2
08:13 22 °C 10.5 °C 1008.4 hPa SW 13 km/h 16.1 km/h 48% 0 mm 406.0 W/m2
08:24 22.3 °C 10.4 °C 1008.7 hPa SW 11.1 km/h 12.9 km/h 47% 0 mm 443.0 W/m2
08:49 23.4 °C 10.5 °C 1008.4 hPa SW 11.1 km/h 12.9 km/h 44% 0 mm 531.0 W/m2
09:08 24.4 °C 10.3 °C 1008.4 hPa SW 13 km/h 13 km/h 41% 0 mm 599.0 W/m2
09:29 25.3 °C 10 °C 1008.4 hPa SW 13 km/h 13 km/h 38% 0 mm 663.0 W/m2
10:01 26.8 °C 10.1 °C 1008.4 hPa Calm   6.4 km/h 35% 0 mm 752.0 W/m2
10:29 28.1 °C 9.9 °C 1008 hPa SW 9.7 km/h 14.5 km/h 32% 0 mm 817.0 W/m2
11:27 30.7 °C 9 °C 1007.3 hPa SW 14.3 km/h 14.5 km/h 26% 0 mm 946.0 W/m2
11:35 31.1 °C 8.8 °C 1007.3 hPa SW 7.9 km/h 14.5 km/h 25% 0 mm 960.0 W/m2
12:00 32.1 °C 7.7 °C 1007 hPa SSW 6.4 km/h 6.4 km/h 22% 0 mm 993.0 W/m2
12:11 32.6 °C 7.4 °C 1006.7 hPa Calm   14.5 km/h 21% 0 mm 1004.0 W/m2
12:19 33 °C 7.1 °C 1006.7 hPa Calm   4.8 km/h 20% 0 mm 1009.0 W/m2
12:25 33 °C 7.1 °C 1006.7 hPa SSW 9.7 km/h 12.9 km/h 20% 0 mm 1011.0 W/m2
12:45 33.6 °C 6 °C 1006.3 hPa South 1.4 km/h 8 km/h 18% 0 mm 1013.0 W/m2
13:10 33.8 °C 6.2 °C 1006.3 hPa Calm   3.2 km/h 18% 0 mm 1014.0 W/m2
13:41 35.1 °C 2.6 °C 1005.6 hPa Calm   11.3 km/h 13% 0 mm 1005.0 W/m2
14:11 35.6 °C 0.6 °C 1005.3 hPa SSW 9.7 km/h 16.1 km/h 11% 0 mm 984.0 W/m2
14:41 35.6 °C 1.8 °C 1005 hPa SW 1.4 km/h 11.3 km/h 12% 0 mm 935.0 W/m2
16:37 36.5 °C 0 °C 1003.3 hPa SSW 11.1 km/h 17.7 km/h 10% 0 mm 643.0 W/m2
17:06 36.4 °C 1.2 °C 1002.9 hPa SSW 16.3 km/h 20.9 km/h 11% 0 mm 543.0 W/m2
17:23 36.4 °C 1.2 °C 1002.9 hPa SSW 24.1 km/h 29 km/h 11% 0 mm 469.0 W/m2
17:44 36.5 °C -1.5 °C 1002.9 hPa SSW 17.7 km/h 29 km/h 9% 0 mm 396.0 W/m2
17:58 36.4 °C -4.9 °C 1002.9 hPa SW 20.9 km/h 24.1 km/h 7% 0 mm 343.0 W/m2
18:08 36.1 °C -3.4 °C 1002.9 hPa SSW 19.5 km/h 19.5 km/h 8% 0 mm 301.0 W/m2
18:22 36 °C -1.8 °C 1002.9 hPa SSW 14.3 km/h 20.9 km/h 9% 0 mm 250.0 W/m2
18:44 35.8 °C -0.6 °C 1003.3 hPa SW 16.3 km/h 22.5 km/h 10% 0 mm 160.0 W/m2
18:52 35.4 °C 1.7 °C 1003.3 hPa SSW 22.7 km/h 29 km/h 12% 0 mm 107.0 W/m2
18:57 35.2 °C 1.5 °C 1003.3 hPa SSW 20.9 km/h 27.4 km/h 12% 0 mm 65.0 W/m2
19:02 35.1 °C 1.4 °C 1003.3 hPa SSW 17.7 km/h 27.4 km/h 12% 0 mm 30.0 W/m2
19:07 34.9 °C 2.4 °C 1003.3 hPa SSW 22.7 km/h 30.6 km/h 13% 0 mm 23.0 W/m2
19:13 34.7 °C 2.2 °C 1003.3 hPa SSW 24.1 km/h 30.6 km/h 13% 0 mm 21.0 W/m2
19:22 34.3 °C 3 °C 1003.3 hPa SSW 16.3 km/h 24.1 km/h 14% 0 mm 16.0 W/m2
19:28 34.1 °C 2.8 °C 1003.3 hPa SSW 14.3 km/h 24.1 km/h 14% 0 mm 14.0 W/m2
19:45 33.3 °C 2.2 °C 1003.6 hPa SW 20.9 km/h 25.7 km/h 14% 0 mm 9.0 W/m2
19:52 32.8 °C 1.8 °C 1003.6 hPa SW 16.3 km/h 24.1 km/h 14% 0 mm 0.0 W/m2
20:17 31.8 °C 2 °C 1003.9 hPa SW 16.3 km/h 24.1 km/h 15% 0 mm 0.0 W/m2
20:32 31.1 °C 4 °C 1003.9 hPa SSW 24.1 km/h 30.6 km/h 18% 0 mm 0.0 W/m2
20:42 30.3 °C 5.5 °C 1004.3 hPa SSW 22.7 km/h 30.6 km/h 21% 0 mm 0.0 W/m2
20:58 29.4 °C 6.7 °C 1004.6 hPa SSW 30.6 km/h 30.6 km/h 24% 0 mm 0.0 W/m2
21:28 27.7 °C 7.5 °C 1005 hPa SSW 27.4 km/h 37 km/h 28% 0 mm 0.0 W/m2
21:42 27.1 °C 8 °C 1005.3 hPa SSW 32 km/h 32.2 km/h 30% 0 mm 0.0 W/m2
21:55 26.5 °C 8 °C 1005.3 hPa SSW 20.9 km/h 30.6 km/h 31% 0 mm 0.0 W/m2
22:05 26.2 °C 8.2 °C 1005.6 hPa SSW 22.7 km/h 32.2 km/h 32% 0 mm 0.0 W/m2
22:17 25.9 °C 8.4 °C 1006 hPa South 24.1 km/h 33.8 km/h 33% 0 mm 0.0 W/m2
22:25 25.7 °C 8.7 °C 1006 hPa SSW 17.7 km/h 29 km/h 34% 0 mm 0.0 W/m2
22:33 25.5 °C 8.5 °C 1006 hPa SSW 27.4 km/h 32.2 km/h 34% 0 mm 0.0 W/m2
22:39 25.4 °C 8.4 °C 1006 hPa SSW 25.9 km/h 32.2 km/h 34% 0 mm 0.0 W/m2
22:44 25.2 °C 8.2 °C 1006 hPa South 32 km/h 33.8 km/h 34% 0 mm 0.0 W/m2
22:59 24.9 °C 8.4 °C 1006.3 hPa SSW 20.9 km/h 30.6 km/h 35% 0 mm 0.0 W/m2
23:09 24.6 °C 8.5 °C 1006.3 hPa SSW 20.9 km/h 27.4 km/h 36% 0 mm 0.0 W/m2
23:14 24.5 °C 8.9 °C 1006.3 hPa SSW 22.7 km/h 29 km/h 37% 0 mm 0.0 W/m2
23:24 24.3 °C 9.1 °C 1006.3 hPa SSW 24.1 km/h 27.4 km/h 38% 0 mm 0.0 W/m2
23:34 24.1 °C 9.3 °C 1006.3 hPa SSW 17.7 km/h 27.4 km/h 39% 0 mm 0.0 W/m2
23:44 23.9 °C 9.5 °C 1006.3 hPa SSW 19.5 km/h 27.4 km/h 40% 0 mm 0.0 W/m2
23:50 23.8 °C 9.8 °C 1006.3 hPa SSW 17.7 km/h 27.4 km/h 41% 0 mm 0.0 W/m2
Canyon Roadhouse, Fishriver Canyon, Namibia
Compliments of Weather Underground - 2.25 mb